St. Cristoph, Austria
Current Conditions -  °F | °C
As of 12:55 PM on Saturday 25 Oct 2014 (Local Time) from LIVE Reporting Station
Broken Clouds Broken Clouds  
Wind Chill: 44°   Ceiling: 5000
Heat Index: 46°   Visibility: 6mi
Dew Point: 34°   Wind: 6mph
Humidity: 62%   Direction: 360°N
Pressure: 30.09"   Gusts: NA
Location:  47.13°N, 10.22°E
Report Text: LIVE 251055Z 36005KT 9999 BKN050 08/01 Q1019 RMK BKN VIS MIN 9999
Loading
Personal Weather Stations






























Interactive Weather Map
Tropical Storm Tracking
New forecast layout! Learn more

10-Day Weather Forecast

Advertisements
Track Severe Weather on mobile